Badger Spring Valley, Nevada Weather observations

Data are for 10 minute period ending at time listed.
 Day   Time   Solar   Ave.   Ave.  Ave.  Vector  Max.   Baro.   Total    
  of    of     Rad.   Air    Rel.  Wind   Wind   Wind  Press.  Precip.   
Year   Day            Temp.  Hum.  Speed  Dir.   Gust                    
2014   (PST)  Kw/m2    F      %     mph   deg.    mph    mb.     in.     
-------------------------------------------------------------------------
 261    9:20   0.62   73.4    55   11.7   132    16.2   828.9    0.00 
 261    9:30   0.79   74.8    53   11.3   138    16.9   828.9    0.00 
 261    9:40   0.83   75.6    51   10.2   137    15.9   828.7    0.00 
 261    9:50   0.82   76.2    50   10.8   120    16.1   828.5    0.00 
 261   10:00   0.65   76.5    49   10.5   128    16.8   828.4    0.00 
 261   10:10   0.75   76.5    49    9.0   135    14.9   828.3    0.00 
 261   10:20   0.90   77.2    47    8.4   147    18.7   828.3    0.00 
 261   10:30   0.97   78.0    46   10.1   139    15.2   828.1    0.00 
 261   10:40   1.00   79.2    44   12.1   142    18.3   828.0    0.00 
 261   10:50   0.52   78.2    44   10.9   140    17.4   828.0    0.00 
 261   11:00   0.29   76.1    48   10.5   136    15.9   828.0    0.00 
 261   11:10   0.32   76.3    47   11.3   159    19.5   828.0    0.00 
 261   11:20   0.20   76.0    46   10.2   141    17.8   827.9    0.00 
 261   11:30   0.33   76.4    41    8.7   177    14.7   827.9    0.00 
 261   11:40   0.97   79.2    28   11.5   224    20.3   827.8    0.00 
 261   11:50   0.97   81.0    27   12.1   219    19.3   827.6    0.00 
 261   12:00   0.44   81.0    28    7.6   210    15.8   827.5    0.00 
 261   12:10   0.23   78.3    38    8.8   155    15.4   827.4    0.00 
 261   12:20   0.43   78.4    34    6.8   211    12.6   827.4    0.00 
 261   12:30   0.41   80.4    29   11.1   183    18.7   827.3    0.00 
 261   12:40   0.69   80.7    29    9.9   172    17.7   827.2    0.00 
 261   12:50   0.63   80.0    35   11.6   145    18.9   827.0    0.00 
 261   13:00   0.51   79.9    37   13.3   132    19.0   826.9    0.00 
 261   13:10   0.54   78.6    40   10.0   116    18.3   826.8    0.00 
 261   13:20   0.88   81.2    32   12.4   148    16.8   826.7    0.00 
 261   13:30   0.68   82.7    24    8.6   177    17.7   826.6    0.00 
 261   13:40   0.35   80.2    35   13.2   136    19.7   826.4    0.00 
 261   13:50   0.21   78.9    35   10.8   130    15.3   826.4    0.00 
 261   14:00   0.20   78.3    38   12.9   131    19.7   826.3    0.00 
 261   14:10   0.18   78.2    39   12.9   136    20.2   826.3    0.00 
 261   14:20   0.18   77.8    40   14.2   125    21.9   826.2    0.00 
 261   14:30   0.34   78.0    39   12.8   131    19.1   826.1    0.00 
 261   14:40   0.49   79.9    36   14.2   130    20.8   826.1    0.00 
 261   14:50   0.23   79.0    37   12.8   132    20.0   826.0    0.00 
 261   15:00   0.23   78.3    38   12.9   123    20.5   826.0    0.00 
 261   15:10   0.19   78.0    38   13.3   128    18.3   826.0    0.00 
 261   15:20   0.33   78.3    36   13.7   130    18.9   825.9    0.00 
 261   15:30   0.35   79.4    34   13.9   128    20.0   825.9    0.00 
 261   15:40   0.20   78.8    34   13.6   137    21.5   825.8    0.00 
 261   15:50   0.14   78.2    34   13.6   136    20.0   825.9    0.00 
 261   16:00   0.38   79.5    31   14.2   130    19.7   825.9    0.00 
 261   16:10   0.23   79.9    29   13.7   133    19.8   825.9    0.00 
 261   16:20   0.08   78.2    29   15.0   133    20.0   825.9    0.00 
 261   16:30   0.16   78.6    28   13.6   132    19.9   825.9    0.00 
 261   16:40   0.20   79.2    26   15.2   135    21.1   825.9    0.00 
 261   16:50   0.16   79.0    25   14.9   131    20.4   825.8    0.00 
 261   17:00   0.10   78.6    24   12.5   130    18.5   825.8    0.00 
 261   17:10   0.10   78.1    24   15.5   131    20.5   825.8    0.00 
 261   17:20   0.05   77.6    23   14.4   131    19.7   825.9    0.00 
 261   17:30   0.02   76.7    24   11.8   136    17.1   825.9    0.00 
 261   17:40   0.01   76.4    23   12.9   136    18.0   826.0    0.00 
 261   17:50   0.01   76.0    22   12.0   139    15.9   826.0    0.00 
 261   18:00   0.00   75.8    22   13.0   139    17.9   826.0    0.00 
 261   18:10   0.00   75.4    22   10.9   140    15.8   826.1    0.00 
 261   18:20   0.00   74.8    22    7.9   148    12.7   826.2    0.00 
 261   18:30   0.00   73.3    23    6.1   216    10.5   826.3    0.00 
 261   18:40   0.00   73.2    23    8.2   216    11.4   826.4    0.00 
 261   18:50   0.00   72.9    18    5.4   244     9.3   826.6    0.00 
 261   19:00   0.00   72.4    15    8.4   268    11.7   826.7    0.00 
 261   19:10   0.00   71.9    16    8.3   281    15.9   826.8    0.00 
 261   19:20   0.00   71.0    15    7.4   284    10.6   826.9    0.00 
 261   19:30   0.00   70.5    15    8.1   293    10.7   827.0    0.00 
 261   19:40   0.00   69.4    16    9.5   292    11.9   827.0    0.00 
 261   19:50   0.00   69.0    16    9.9   297    11.8   827.1    0.00 
 261   20:00   0.00   68.4    16   10.2   297    12.2   827.1    0.00 
 261   20:10   0.00   68.3    16    9.6   294    12.0   827.2    0.00 
 261   20:20   0.00   68.2    17   10.0   293    12.7   827.2    0.00 
 261   20:30   0.00   67.7    18   10.2   296    11.8   827.2    0.00 
 261   20:40   0.00   68.3    18    9.7   293    13.0   827.2    0.00 
 261   20:50   0.00   67.7    19    8.9   292    10.6   827.2    0.00 
 261   21:00   0.00   68.1    20    8.5   292    10.2   827.2    0.00 
 261   21:10   0.00   67.4    21    8.7   297    10.7   827.2    0.00 
 261   21:20   0.00   67.7    22    8.4   295    10.9   827.3    0.00 
 261   21:30   0.00   68.6    22   10.1   292    13.0   827.3    0.00 
 261   21:40   0.00   68.4    23    8.8   287    13.7   827.4    0.00 
 261   21:50   0.00   69.8    22   10.9   290    14.6   827.4    0.00 
 261   22:00   0.00   69.7    22    8.5   285    12.6   827.5    0.00 
 261   22:10   0.00   69.5    23    9.8   285    14.0   827.5    0.00 
 261   22:20   0.00   69.2    24    9.1   291    12.0   827.6    0.00 
 261   22:30   0.00   68.6    24    7.1   296    10.5   827.6    0.00 
 261   22:40   0.00   67.6    25    5.4   304     8.9   827.7    0.00 
 261   22:50   0.00   66.7    26    5.0   318     8.0   827.8    0.00 
 261   23:00   0.00   66.7    26    2.3   314     3.7   827.8    0.00 
 261   23:10   0.00   66.1    27    1.8   306     4.1   827.9    0.00 
 261   23:20   0.00   64.9    29    5.2   294     7.9   827.9    0.00 
 261   23:30   0.00   64.7    30    8.6   286    10.7   827.8    0.00 
 261   23:40   0.00   63.8    31    8.8   294    10.2   827.9    0.00 
 261   23:50   0.00   62.8    32    9.2   297    10.9   827.8    0.00 
 262    0:00   0.00   62.6    32    8.8   292    10.4   827.9    0.00 
 262    0:10   0.00   64.1    31    9.3   290    10.5   827.9    0.00 
 262    0:20   0.00   63.7    32    9.8   300    11.4   827.8    0.00 
 262    0:30   0.00   63.7    32    8.7   300    10.2   827.8    0.00 
 262    0:40   0.00   63.8    32    9.6   295    11.5   827.9    0.00 
 262    0:50   0.00   64.1    32    9.2   295    11.8   827.9    0.00 
 262    1:00   0.00   63.9    32    5.0   314     9.2   828.0    0.00 
 262    1:10   0.00   62.7    33    3.2   230     5.4   828.1    0.00 
 262    1:20   0.00   62.3    33    3.5   300     5.2   828.1    0.00 
 262    1:30   0.00   61.2    35    2.5   276     4.5   828.1    0.00 
 262    1:40   0.00   60.9    34    5.9   296     7.3   828.1    0.00 
 262    1:50   0.00   60.3    34    5.5   311     7.4   828.1    0.00 
 262    2:00   0.00   62.1    33    6.4   299    10.4   828.1    0.00 
 262    2:10   0.00   62.6    32    7.5   293     9.0   828.1    0.00 
 262    2:20   0.00   61.2    34    7.6   300     8.8   828.1    0.00 
 262    2:30   0.00   61.6    34    8.0   294     9.6   828.1    0.00 
 262    2:40   0.00   62.0    34   10.4   289    12.6   828.1    0.00 
 262    2:50   0.00   62.5    33    9.3   290    11.3   828.1    0.00 
 262    3:00   0.00   62.5    33    8.2   292    10.2   828.2    0.00 
 262    3:10   0.00   61.6    34    6.9   298     8.5   828.2    0.00 
 262    3:20   0.00   61.4    34    8.9   291    10.5   828.2    0.00 
 262    3:30   0.00   62.2    32   10.3   288    11.9   828.3    0.00 
 262    3:40   0.00   62.7    32    8.0   292    10.8   828.4    0.00 
 262    3:50   0.00   61.8    32    6.2   300     7.5   828.4    0.00 
 262    4:00   0.00   61.5    32    7.7   295     8.8   828.4    0.00 
 262    4:10   0.00   61.6    32    6.2   298     7.3   828.4    0.00 
 262    4:20   0.00   60.3    34    5.5   303     6.6   828.5    0.00 
 262    4:30   0.00   60.4    34    4.8   309     6.0   828.6    0.00 
 262    4:40   0.00   60.7    33    5.6   315     6.9   828.6    0.00 
 262    4:50   0.00   59.9    34    6.5   308     7.5   828.7    0.00 
 262    5:00   0.00   59.7    34    6.1   322     7.5   828.6    0.00 
 262    5:10   0.00   60.4    34    6.1   351     7.5   828.7    0.00 
 262    5:20   0.00   60.3    35    5.7   357     6.7   828.8    0.00 
 262    5:30   0.00   59.8    36    6.7   351     7.9   828.8    0.00 
 262    5:40   0.01   60.7    35    7.0   344     8.0   828.9    0.00 
 262    5:50   0.04   63.4    33    7.5   352     9.6   829.1    0.00 
 262    6:00   0.07   66.4    30    6.6   354     8.3   829.3    0.00 
 262    6:10   0.10   67.7    29    6.5   356     8.1   829.4    0.00 
 262    6:20   0.13   69.1    28    6.7     2     8.1   829.6    0.00 
 262    6:30   0.16   70.0    27    6.7   358     8.6   829.8    0.00 
 262    6:40   0.20   70.6    27    6.8   356     9.8   829.9    0.00 
 262    6:50   0.23   71.4    27    4.3     5     8.3   830.0    0.00 
 262    7:00   0.27   72.1    26    5.6    29     8.4   830.1    0.00 
 262    7:10   0.31   72.3    26    5.6    25     7.9   830.2    0.00 
 262    7:20   0.34   73.5    25    5.3    62     8.0   830.3    0.00 
 262    7:30   0.38   73.7    24    5.9    48     8.6   830.3    0.00 
 262    7:40   0.42   73.8    24    5.8    63     9.3   830.5    0.00 
 262    7:50   0.46   73.8    25    6.0    50     9.1   830.5    0.00 
 262    8:00   0.49   74.2    25    5.9    87    10.8   830.6    0.00 
 262    8:10   0.53   74.0    25    7.3    66    12.2   830.7    0.00 
 262    8:20   0.56   73.9    26    6.2    77    11.0   830.8    0.00 
 262    8:30   0.59   74.4    26    5.8    72    11.8   830.9    0.00 
 262    8:40   0.62   74.2    26    5.3   105    12.0   830.9    0.00 
 262    8:50   0.66   74.5    26    5.7    86    13.2   830.8    0.00 
 262    9:00   0.69   75.0    26    4.8   100     9.8   830.9    0.00 
 262    9:10   0.71   75.2    26    4.9    78    10.0   830.9    0.00 

Return to Badger Spring Valley graphs page.


Western Regional Climate Center,wrcc@dri.edu